Flight Track Log - Related Links

Times and Time Zones

All times are in EDT time to prevent confusion due to time zone crossing. See the N8177Y flight status page for this flight to view local times or setup timezone preferences in your user account.

Time Position Orientation Groundspeed Altitude Reporting Facility
EDT Latitude Longitude Course Direction KTS MPH feet Rate Location/Type
Tue 04:19:00 PM 34.7708 -112.0857 251° West  Level FlightAware Approximate
Tue 04:20:00 PM 34.7602 -112.1360 258° West  Level FlightAware Approximate
Tue 04:21:00 PM 34.7510 -112.1869 258° West  Level FlightAware Approximate
Tue 04:21:27 PM 34.8114 -111.9247 251° West 121 139 7,200  Level Albuquerque Center
Tue 04:22:00 PM 34.7418 -112.2377 258° West  Level FlightAware Approximate
Tue 04:22:29 PM 34.8022 -111.9622 253° West 119 137 7,700  Level Albuquerque Center
Tue 04:23:00 PM 34.7325 -112.2885 258° West  Level FlightAware Approximate
Tue 04:23:30 PM 34.7969 -112.0003 260° West 116 133 8,300  Level Albuquerque Center
Tue 04:24:00 PM 34.7233 -112.3393 258° West  Level FlightAware Approximate
Tue 04:24:32 PM 34.7900 -112.0386 258° West 116 133 8,900  Level Albuquerque Center
Tue 04:25:00 PM 34.7140 -112.3901 257° West  Level FlightAware Approximate
Tue 04:25:34 PM 34.7794 -112.0867 255° West 121 139 9,800  Level Albuquerque Center
Tue 04:26:36 PM 34.7733 -112.1292 260° West 126 145 10,000 97 Climbing Albuquerque Center
Tue 04:27:38 PM 34.7661 -112.1814 260° West 147 169 10,000 195 Level Albuquerque Center
Tue 04:28:39 PM 34.7556 -112.2333 256° West 157 181 10,400 488 Climbing Albuquerque Center
Tue 04:29:41 PM 34.7411 -112.2761 248° West 146 168 11,000 581 Climbing Albuquerque Center
Tue 04:30:43 PM 34.7311 -112.3225 255° West 143 165 11,600 484 Climbing Albuquerque Center
Tue 04:31:45 PM 34.7236 -112.3833 261° West 147 169 12,000 194 Climbing Albuquerque Center
Tue 04:32:47 PM 34.7172 -112.4394 262° West 155 178 12,000  Level Albuquerque Center
Tue 04:33:48 PM 34.7086 -112.4956 259° West 162 186 12,000  Level Albuquerque Center
Tue 04:34:50 PM 34.7036 -112.5514 264° West 165 190 12,000  Level Albuquerque Center
Tue 04:35:52 PM 34.7131 -112.6075 282° West 169 194 12,000  Level Albuquerque Center
Tue 04:36:54 PM 34.7175 -112.6636 276° West 168 193 12,000  Level Albuquerque Center
Tue 04:37:55 PM 34.7150 -112.7217 267° West 169 194 12,000  Level Albuquerque Center
Tue 04:38:57 PM 34.7181 -112.7906 273° West 171 197 12,000  Level Albuquerque Center
Tue 04:39:59 PM 34.7239 -112.8478 277° West 172 198 12,000  Level Albuquerque Center
Tue 04:41:00 PM 34.7239 -112.9050 270° West 171 197 12,000  Level Albuquerque Center
Tue 04:42:02 PM 34.7242 -112.9625 270° West 171 197 12,000  Level Albuquerque Center
Tue 04:43:04 PM 34.7339 -113.0203 282° West 175 201 12,000  Level Albuquerque Center
Tue 04:44:06 PM 34.7322 -113.0789 268° West 176 203 12,000  Level Albuquerque Center
Tue 04:45:07 PM 34.7306 -113.1469 268° West 171 197 12,000  Level Albuquerque Center
Tue 04:46:09 PM 34.7392 -113.2019 281° West 169 194 12,000  Level Albuquerque Center
Tue 04:47:11 PM 34.7403 -113.2572 271° West 166 191 12,000  Level Albuquerque Center
Tue 04:48:12 PM 34.7344 -113.3128 263° West 168 193 12,000  Level Albuquerque Center
Tue 04:49:14 PM 34.7353 -113.3658 271° West 163 188 12,000  Level Albuquerque Center
Tue 04:50:16 PM 34.7425 -113.4183 280° West 160 184 12,000  Level Albuquerque Center
Tue 04:51:18 PM 34.7417 -113.4831 269° West 161 185 12,000  Level Albuquerque Center
Tue 04:52:19 PM 34.7422 -113.5369 271° West 162 186 12,000 98 Level Albuquerque Center
Tue 04:53:21 PM 34.7475 -113.5919 277° West 164 189 12,200 145 Climbing Albuquerque Center
Tue 04:54:23 PM 34.7481 -113.6439 271° West 158 182 12,300 48 Climbing Albuquerque Center
Tue 04:55:25 PM 34.7456 -113.6964 267° West 157 181 12,300  Level Albuquerque Center
Tue 04:56:26 PM 34.7503 -113.7506 276° West 161 185 12,300  Level Albuquerque Center
Tue 04:57:28 PM 34.7542 -113.8156 274° West 162 186 12,300  Level Albuquerque Center
Tue 04:58:30 PM 34.7539 -113.8672 270° West 157 181 12,300 -57 Level Albuquerque Center
Tue 04:59:14 PM 34.7547 -113.8981 272° West 157 181 12,200 -57 Descending Los Angeles Center
Tue 05:00:16 PM 34.7561 -113.9556 272° West 157 181 12,200  Level Los Angeles Center
Tue 05:01:19 PM 34.7581 -114.0086 273° West 157 181 12,200  Level Los Angeles Center
Tue 05:02:33 PM 34.7597 -114.0722 272° West 157 181 12,200  Level Los Angeles Center
Tue 05:03:35 PM 34.7614 -114.1347 272° West 155 178 12,200  Level Los Angeles Center
Tue 05:04:37 PM 34.7636 -114.1872 273° West 156 180 12,200  Level Los Angeles Center
Tue 05:05:40 PM 34.7644 -114.2397 271° West 156 180 12,200  Level Los Angeles Center
Tue 05:06:42 PM 34.7658 -114.2919 272° West 155 178 12,200  Level Los Angeles Center
Tue 05:07:44 PM 34.7672 -114.3439 272° West 153 176 12,200  Level Los Angeles Center
Tue 05:08:46 PM 34.7678 -114.4050 271° West 152 175 12,200  Level Los Angeles Center
Tue 05:09:48 PM 34.7697 -114.4567 273° West 152 175 12,200  Level Los Angeles Center
Tue 05:10:50 PM 34.7492 -114.5028 242° Southwest 153 176 12,200  Level Los Angeles Center
Tue 05:11:52 PM 34.7275 -114.5461 239° Southwest 150 173 12,200  Level Los Angeles Center
Tue 05:12:54 PM 34.7081 -114.5939 244° Southwest 154 177 12,200  Level Los Angeles Center
Tue 05:13:57 PM 34.6883 -114.6386 242° Southwest 151 174 12,200  Level Los Angeles Center
Tue 05:15:11 PM 34.6592 -114.6922 237° Southwest 156 180 12,200  Level Los Angeles Center
Tue 05:16:13 PM 34.6333 -114.7456 240° Southwest 155 178 12,200  Level Los Angeles Center
Tue 05:17:15 PM 34.6111 -114.7889 238° Southwest 152 175 12,200  Level Los Angeles Center
Tue 05:18:17 PM 34.5892 -114.8328 239° Southwest 152 175 12,200  Level Los Angeles Center
Tue 05:19:20 PM 34.5678 -114.8786 240° Southwest 155 178 12,200  Level Los Angeles Center
Tue 05:20:22 PM 34.5458 -114.9228 239° Southwest 153 176 12,200  Level Los Angeles Center
Tue 05:21:24 PM 34.5175 -114.9756 237° Southwest 154 177 12,200  Level Los Angeles Center
Tue 05:22:26 PM 34.4950 -115.0189 238° Southwest 153 176 12,200  Level Los Angeles Center
Tue 05:23:28 PM 34.4739 -115.0647 241° Southwest 154 177 12,200  Level Los Angeles Center
Tue 05:24:30 PM 34.4517 -115.1089 239° Southwest 153 176 12,200  Level Los Angeles Center
Tue 05:25:32 PM 34.4297 -115.1514 238° Southwest 150 173 12,200 -48 Level Los Angeles Center
Tue 05:26:34 PM 34.4053 -115.2003 239° Southwest 154 177 12,100 -144 Descending Los Angeles Center
Tue 05:27:37 PM 34.3825 -115.2453 238° Southwest 156 180 11,900 -97 Descending Los Angeles Center
Tue 05:28:38 PM 34.3658 -115.2806 240° Southwest 154 177 11,900  Level Los Angeles Center
Tue 05:29:41 PM 34.3331 -115.3425 237° Southwest 155 178 11,900  Level Los Angeles Center
Tue 05:30:43 PM 34.3114 -115.3892 241° Southwest 160 184 11,900  Level Los Angeles Center
Tue 05:31:45 PM 34.2886 -115.4356 239° Southwest 160 184 11,900  Level Los Angeles Center
Tue 05:32:47 PM 34.2658 -115.4800 238° Southwest 158 182 11,900  Level Los Angeles Center
Tue 05:33:49 PM 34.2431 -115.5256 239° Southwest 157 181 11,900 -48 Level Los Angeles Center
Tue 05:34:51 PM 34.2192 -115.5669 235° Southwest 152 175 11,800 -48 Descending Los Angeles Center
Tue 05:35:53 PM 34.1933 -115.6219 240° Southwest 156 180 11,800  Level Los Angeles Center
Tue 05:36:55 PM 34.1706 -115.6686 239° Southwest 159 183 11,800  Level Los Angeles Center
Tue 05:37:57 PM 34.1519 -115.7036 237° Southwest 159 183 11,800  Level Los Angeles Center
Tue 05:39:00 PM 34.1239 -115.7575 238° Southwest 159 183 11,800  Level Los Angeles Center
Tue 05:40:02 PM 34.1022 -115.8044 241° Southwest 158 182 11,800  Level Los Angeles Center
Tue 05:41:04 PM 34.0858 -115.8525 248° West 156 180 11,800  Level Los Angeles Center
Tue 05:42:06 PM 34.0667 -115.9133 249° West 159 183 11,800 48 Level Los Angeles Center
Tue 05:43:08 PM 34.0486 -115.9636 247° West 164 189 11,900  Climbing Los Angeles Center
Tue 05:44:10 PM 34.0450 -116.0175 265° West 161 185 11,800 -48 Descending Los Angeles Center
Tue 05:45:12 PM 34.0478 -116.0703 274° West 160 184 11,800 -97 Level Los Angeles Center
Tue 05:46:14 PM 34.0406 -116.1211 260° West 157 181 11,600 -242 Descending Los Angeles Center
Tue 05:47:16 PM 34.0239 -116.1842 252° West 163 188 11,300 -339 Descending Los Angeles Center
Tue 05:48:18 PM 34.0175 -116.2364 262° West 160 184 10,900 -339 Descending Los Angeles Center
Tue 05:49:20 PM 34.0161 -116.2794 268° West 160 184 10,600 -435 Descending Los Angeles Center
Tue 05:50:22 PM 34.0094 -116.3447 263° West 163 188 10,000 -339 Descending Los Angeles Center
Tue 05:51:24 PM 34.0019 -116.3994 261° West 166 191 9,900 -48 Descending Los Angeles Center
Tue 05:52:27 PM 33.9956 -116.4514 262° West 159 183 9,900  Level Los Angeles Center
Tue 05:53:29 PM 33.9853 -116.5114 258° West 154 177 9,900 97 Level Los Angeles Center
Tue 05:54:31 PM 33.9775 -116.5614 259° West 153 176 10,100 48 Climbing Los Angeles Center
Tue 05:55:33 PM 33.9714 -116.6125 262° West 155 178 10,000 -48 Descending Los Angeles Center
Tue 05:56:35 PM 33.9644 -116.6639 261° West 155 178 10,000 48 Level Los Angeles Center
Tue 05:57:37 PM 33.9583 -116.7136 262° West 154 177 10,100  Climbing Los Angeles Center
Tue 05:58:39 PM 33.9508 -116.7733 261° West 151 174 10,000 -48 Descending Los Angeles Center
Tue 05:59:41 PM 33.9497 -116.8247 269° West 152 175 10,000 48 Level Los Angeles Center
Tue 06:00:43 PM 33.9497 -116.8764 270° West 154 177 10,100  Climbing Los Angeles Center
Tue 06:01:18 PM 33.9500 -116.9167 270° West 156 180 10,000 -253 Descending Southern California TRACON
Tue 06:02:18 PM 33.9500 -116.9667 270° West 166 191 9,700 -400 Descending Southern California TRACON
Tue 06:03:18 PM 33.9500 -117.0167 270° West 169 194 9,200 -500 Descending Southern California TRACON
Tue 06:04:18 PM 33.9500 -117.0833 270° West 165 190 8,700 -500 Descending Southern California TRACON
Tue 06:05:18 PM 33.9333 -117.1333 248° West 163 188 8,200 -500 Descending Southern California TRACON
Tue 06:06:18 PM 33.9333 -117.1833 270° West 167 192 7,700 -450 Descending Southern California TRACON
Tue 06:07:18 PM 33.9333 -117.2500 270° West 170 196 7,300 -500 Descending Southern California TRACON
Tue 06:08:18 PM 33.9333 -117.3000 270° West 172 198 6,700 -500 Descending Southern California TRACON
Tue 06:09:18 PM 33.9333 -117.3500 270° West 165 190 6,300 -350 Descending Southern California TRACON
Tue 06:10:18 PM 33.9333 -117.4167 270° West 158 182 6,000 -200 Descending Southern California TRACON
Tue 06:11:18 PM 33.9333 -117.4667 270° West 146 168 5,900 -50 Descending Southern California TRACON
Tue 06:12:19 PM 33.9500 -117.5000 301° West 143 165 5,900  Level Southern California TRACON
Tue 06:13:19 PM 33.9500 -117.5500 270° West 147 169 5,900  Level Southern California TRACON
Tue 06:14:19 PM 33.9500 -117.6000 270° West 148 170 5,900  Level Southern California TRACON
Tue 06:15:24 PM 33.9500 -117.6500 270° West 146 168 5,900  Level Southern California TRACON
Tue 06:16:24 PM 33.9833 -117.7000 309° West 146 168 5,900  Level Southern California TRACON
Tue 06:17:25 PM 33.9833 -117.7333 270° West 145 167 5,900  Level Southern California TRACON
Tue 06:18:19 PM 34.0000 -117.7833 292° West 145 167 5,900  Level Southern California TRACON
Tue 06:19:25 PM 34.0167 -117.8333 292° West 144 166 5,900  Level Southern California TRACON
Tue 06:20:19 PM 34.0333 -117.8667 301° West 144 166 5,900  Level Southern California TRACON
Tue 06:21:25 PM 34.0500 -117.9167 292° West 143 165 5,900  Level Southern California TRACON
Tue 06:22:25 PM 34.0667 -117.9667 292° West 147 169 5,900  Level Southern California TRACON
Tue 06:23:20 PM 34.0667 -118.0000 270° West 148 170 5,900  Level Southern California TRACON
Tue 06:24:25 PM 34.1000 -118.0500 309° West 147 169 5,900  Level Southern California TRACON
Tue 06:25:20 PM 34.1000 -118.1000 270° West 148 170 5,900  Level Southern California TRACON
Tue 06:26:20 PM 34.1167 -118.1500 292° West 147 169 5,900 49 Level Southern California TRACON
Tue 06:27:22 PM 34.1269 -118.1869 289° West 148 170 6,000 48 Climbing Los Angeles Center
Tue 06:28:24 PM 34.1456 -118.2314 297° West 149 171 6,000  Level Los Angeles Center
Tue 06:29:26 PM 34.1444 -118.2906 269° West 153 176 6,000  Level Los Angeles Center
Tue 06:30:28 PM 34.1403 -118.3403 264° West 150 173 6,000  Level Los Angeles Center
Tue 06:31:29 PM 34.1386 -118.3900 268° West 150 173 6,000  Level Los Angeles Center
Tue 06:32:31 PM 34.1367 -118.4394 267° West 149 171 6,000 -242 Level Los Angeles Center
Tue 06:33:33 PM 34.1333 -118.4925 266° West 154 177 5,500 -726 Descending Los Angeles Center
Tue 06:34:35 PM 34.1333 -118.5597 270° West 163 188 4,500 -726 Descending Los Angeles Center
Tue 06:35:37 PM 34.1769 -118.5775 341° North 166 191 4,000 -484 Descending Los Angeles Center
Tue 06:36:39 PM 34.2008 -118.5356 55° Northeast 170 196 3,500 -629 Descending Los Angeles Center
Tue 06:37:41 PM 34.1997 -118.4836 91° East 162 186 2,700 2,393 Descending Los Angeles Center
Tue 06:39:22 PM 34.2000 -118.4167 90° East 103 119 10,000 1,379 Climbing Southern California TRACON
Tue 06:40:22 PM 34.2000 -118.3833 90° East 99 114 6,400 -3,600 Descending Southern California TRACON

Login

Don't have an account? Register now (free) for customized features, flight alerts, and more!